Upper Island Cove, Canada
Current Conditions -  °F | °C
As of 2:00 AM on Sunday 21 Dec 2014 (Local Time) from CYYT Reporting Station
Overcast Overcast  
Wind Chill: 19°   Ceiling: 2800
Heat Index: 30°   Visibility: 15mi
Dew Point: 23°   Wind: 16mph
Humidity: 75%   Direction: 50°NE
Pressure: 30.18"   Gusts: 23mph
Location:  47.65°N, 53.22°W
Report Text: CYYT 210500Z 05014G20KT 15SM OVC028 M01/M05 A3018 RMK SC8 SLP228
Loading
Personal Weather Stations






























Interactive Weather Map New forecast layout! Learn more

10-Day Weather Forecast

Advertisements
Track Severe Weather on mobile